< < Back
Terminal Aerodrome Forecast


Current Version              Previous Versions:   1  2  3  4  5  6  7  8  9  

Terminal Aerodrome Forecast

822
FTUS42 KGSP 281153
TAFGSP
TAF
KGSP 281153Z 2812/2912 08003KT P6SM FEW070
     FM281500 11006KT P6SM SCT060
     FM290000 11004KT P6SM BKN070
     FM290500 04004KT P6SM BKN050=

Latest METAR

324
SAUS70 KWBC 281540 RRC
MTRGSP
METAR KGSP 281553Z 10005KT 10SM FEW050 27/13 A3019 RMK AO2 SLP211
T02670133


USA.gov is the U.S. government's official web portal to all federal, state and local government web resources and services.